Maple, Texas
Current Conditions -  °F | °C
As of 6:35 AM on Monday 20 Oct 2014 (Local Time) from KCVN Reporting Station
Clear Clear  
Wind Chill: 50°   Ceiling: Unl
Heat Index: 50°   Visibility: 5mi
Dew Point: 46°   Wind: 7mph
Humidity: 87%   Direction: 270°W
Pressure: 30.15"   Gusts: NA
Location:  33.85°N, 102.9°W
Report Text: KCVN 201135Z AUTO 27006KT 5SM CLR 10/08 A3015 RMK AO1
Loading
Personal Weather Stations






























Interactive Weather Map
Tropical Storm Tracking
New forecast layout! Learn more

10-Day Weather Forecast

Advertisements
Track Severe Weather on mobile